createdAt,value
2019-05-29T00:01:37.401Z,101223.95
2019-05-29T00:07:43.285Z,101227.44
2019-05-29T00:13:49.281Z,101231.84
2019-05-29T00:19:55.162Z,101235.34
2019-05-29T00:26:01.525Z,101243.68
2019-05-29T00:32:08.820Z,101248.47
2019-05-29T00:38:14.960Z,101258.55
2019-05-29T00:44:33.455Z,101264.25
2019-05-29T00:50:28.205Z,101281.77
2019-05-29T00:56:33.970Z,101281.27
2019-05-29T01:02:39.720Z,101276.84
2019-05-29T01:08:45.683Z,101286.48
2019-05-29T01:14:51.547Z,101290.39
2019-05-29T01:20:57.358Z,101306.55
2019-05-29T01:27:03.193Z,101306.08
2019-05-29T01:33:09.209Z,101309.48
2019-05-29T01:39:15.253Z,101318.19
2019-05-29T01:45:21.523Z,101322.92
2019-05-29T01:51:28.047Z,101329.83
2019-05-29T01:57:33.967Z,101345.50
2019-05-29T02:03:39.759Z,101351.57
2019-05-29T02:09:46.327Z,101355.52
2019-05-29T02:15:52.047Z,101355.89
2019-05-29T02:21:58.543Z,101368.55
2019-05-29T02:28:04.285Z,101370.23
2019-05-29T02:34:10.257Z,101383.69
2019-05-29T02:40:16.513Z,101390.73
2019-05-29T02:46:26.437Z,101395.03
2019-05-29T02:52:33.155Z,101390.56
2019-05-29T02:58:39.186Z,101387.03
2019-05-29T03:04:45.198Z,101406.22
2019-05-29T03:10:51.265Z,101402.54
2019-05-29T03:16:57.623Z,101405.77
2019-05-29T03:23:03.447Z,101405.43
2019-05-29T03:29:09.335Z,101415.62
2019-05-29T03:35:15.273Z,101423.56
2019-05-29T03:41:21.142Z,101427.64
2019-05-29T03:47:28.675Z,101443.47
2019-05-29T03:53:37.726Z,101450.36
2019-05-29T03:59:42.895Z,101460.17
2019-05-29T04:05:48.625Z,101460.89
2019-05-29T04:11:54.618Z,101463.75
2019-05-29T04:18:01.708Z,101470.39
2019-05-29T04:24:09.419Z,101470.63
2019-05-29T04:30:16.263Z,101486.72
2019-05-29T04:36:22.490Z,101491.87
2019-05-29T04:42:29.611Z,101508.38
2019-05-29T04:48:39.754Z,101508.63
2019-05-29T04:54:43.908Z,101511.88
2019-05-29T05:00:59.090Z,101521.34
2019-05-29T05:06:58.456Z,101534.67
2019-05-29T05:13:05.328Z,101537.92
2019-05-29T05:19:11.089Z,101541.22
2019-05-29T05:25:16.938Z,101556.22
2019-05-29T05:31:23.361Z,101562.55
2019-05-29T05:37:30.537Z,101560.97
2019-05-29T05:43:36.942Z,101562.97
2019-05-29T05:49:42.879Z,101568.89
2019-05-29T05:55:48.618Z,101571.23
2019-05-29T06:01:54.464Z,101579.74
2019-05-29T06:08:01.211Z,101581.58
2019-05-29T06:14:07.161Z,101584.76
2019-05-29T06:20:14.275Z,101583.58
2019-05-29T06:26:20.057Z,101591.17
2019-05-29T06:32:25.821Z,101601.80
2019-05-29T06:38:31.563Z,101600.52
2019-05-29T06:44:39.398Z,101606.80
2019-05-29T06:50:45.060Z,101603.80
2019-05-29T06:56:51.572Z,101607.86
2019-05-29T07:02:57.329Z,101606.57
2019-05-29T07:09:04.057Z,101611.47
2019-05-29T07:15:10.244Z,101624.27
2019-05-29T07:21:16.310Z,101633.10
2019-05-29T07:27:22.075Z,101633.98
2019-05-29T07:33:27.991Z,101631.36
2019-05-29T07:39:34.016Z,101637.51
2019-05-29T07:45:40.605Z,101644.14
2019-05-29T07:51:48.841Z,101652.53
2019-05-29T07:57:54.841Z,101657.41
2019-05-29T08:04:00.661Z,101660.02
2019-05-29T08:10:07.598Z,101657.83
2019-05-29T08:16:13.353Z,101661.33
2019-05-29T08:22:33.669Z,101656.02
2019-05-29T08:28:27.666Z,101656.84
2019-05-29T08:34:33.866Z,101664.32
2019-05-29T08:40:40.967Z,101664.27
2019-05-29T08:47:06.468Z,101666.89
2019-05-29T08:52:55.175Z,101668.57
2019-05-29T08:59:00.917Z,101665.42
2019-05-29T09:05:08.204Z,101660.05
2019-05-29T09:11:13.989Z,101668.01
2019-05-29T09:17:20.121Z,101662.12
2019-05-29T09:23:25.849Z,101659.39
2019-05-29T09:29:31.757Z,101657.53
2019-05-29T09:35:37.462Z,101654.42
2019-05-29T09:41:43.319Z,101659.19
2019-05-29T09:47:49.139Z,101663.49
2019-05-29T09:53:57.254Z,101661.66
2019-05-29T10:00:04.031Z,101661.09
2019-05-29T10:06:11.005Z,101661.75
2019-05-29T10:12:16.856Z,101666.78
2019-05-29T10:18:32.083Z,101669.13
2019-05-29T10:24:32.509Z,101673.39
2019-05-29T10:30:38.200Z,101670.46
2019-05-29T10:36:49.901Z,101658.41
2019-05-29T10:42:53.893Z,101663.00
2019-05-29T10:48:59.904Z,101666.52
2019-05-29T10:55:06.491Z,101665.97
2019-05-29T11:01:12.797Z,101658.19
2019-05-29T11:07:19.085Z,101658.52
2019-05-29T11:13:25.075Z,101647.92
2019-05-29T11:19:31.632Z,101652.08
2019-05-29T11:25:45.480Z,101646.67
2019-05-29T11:31:53.463Z,101643.97
2019-05-29T11:38:00.516Z,101635.86
2019-05-29T11:44:08.111Z,101642.71
2019-05-29T11:50:19.569Z,101627.59
2019-05-29T11:56:22.920Z,101635.30
2019-05-29T12:02:28.720Z,101630.31
2019-05-29T12:08:34.504Z,101615.12
2019-05-29T12:14:58.824Z,101619.25
2019-05-29T12:20:48.391Z,101624.41
2019-05-29T12:26:54.537Z,101618.86
2019-05-29T12:33:01.162Z,101611.22
2019-05-29T12:39:09.041Z,101605.84
2019-05-29T12:45:15.171Z,101607.51
2019-05-29T12:51:20.960Z,101613.50
2019-05-29T12:57:26.819Z,101607.77
2019-05-29T13:03:32.594Z,101598.22
2019-05-29T13:09:39.326Z,101596.26
2019-05-29T13:15:45.256Z,101588.20
2019-05-29T13:21:51.417Z,101589.34
2019-05-29T13:27:59.872Z,101581.89
2019-05-29T13:34:07.151Z,101579.28
2019-05-29T13:40:13.797Z,101575.20
2019-05-29T13:46:19.954Z,101572.03
2019-05-29T13:52:26.411Z,101567.00
2019-05-29T13:58:32.402Z,101560.93
2019-05-29T14:04:38.633Z,101562.76
2019-05-29T14:10:44.705Z,101556.51
2019-05-29T14:16:50.933Z,101548.74
2019-05-29T14:22:57.045Z,101546.27
2019-05-29T14:29:03.527Z,101546.81
2019-05-29T14:35:11.153Z,101548.08
2019-05-29T14:41:18.158Z,101550.41
2019-05-29T14:47:24.512Z,101550.34
2019-05-29T14:53:31.454Z,101548.30
2019-05-29T14:59:38.217Z,101539.22
2019-05-29T15:05:45.028Z,101539.57
2019-05-29T15:11:51.819Z,101540.22
2019-05-29T15:18:02.903Z,101541.98
2019-05-29T15:24:09.856Z,101540.30
2019-05-29T15:30:22.291Z,101548.43
2019-05-29T15:36:24.264Z,101542.61
2019-05-29T15:42:30.539Z,101537.53
2019-05-29T15:48:36.717Z,101545.86
2019-05-29T15:54:43.269Z,101544.63
2019-05-29T16:00:50.034Z,101551.30
2019-05-29T16:06:56.402Z,101548.73
2019-05-29T16:13:02.773Z,101551.59
2019-05-29T16:19:10.043Z,101545.94
2019-05-29T16:25:16.970Z,101538.09
2019-05-29T16:31:23.543Z,101534.59
2019-05-29T16:37:30.652Z,101533.65
2019-05-29T16:43:37.217Z,101532.53
2019-05-29T16:49:43.532Z,101533.81
2019-05-29T16:55:53.868Z,101534.47
2019-05-29T17:01:58.392Z,101528.53
2019-05-29T17:08:04.659Z,101518.66
2019-05-29T17:14:10.770Z,101514.36
2019-05-29T17:20:22.779Z,101521.89
2019-05-29T17:26:28.969Z,101520.11
2019-05-29T17:32:35.250Z,101521.16
2019-05-29T17:38:41.478Z,101526.83
2019-05-29T17:44:48.220Z,101526.11
2019-05-29T17:50:56.686Z,101527.58
2019-05-29T17:57:02.940Z,101539.33
2019-05-29T18:03:09.148Z,101542.83
2019-05-29T18:09:15.093Z,101546.34
2019-05-29T18:15:21.690Z,101548.58
2019-05-29T18:21:28.072Z,101555.12
2019-05-29T18:27:35.330Z,101553.19
2019-05-29T18:33:41.413Z,101556.40
2019-05-29T18:39:47.665Z,101557.31
2019-05-29T18:45:53.491Z,101554.46
2019-05-29T18:52:00.572Z,101554.66
2019-05-29T18:58:07.044Z,101548.64
2019-05-29T19:04:12.952Z,101551.72
2019-05-29T19:10:19.486Z,101558.28
2019-05-29T19:16:26.345Z,101562.58
2019-05-29T19:22:32.781Z,101561.64
2019-05-29T19:28:38.672Z,101565.59
2019-05-29T19:34:44.843Z,101572.66
2019-05-29T19:40:50.961Z,101581.65
2019-05-29T19:46:57.146Z,101591.52
2019-05-29T19:53:03.334Z,101599.61
2019-05-29T19:59:09.192Z,101599.89
2019-05-29T20:05:15.428Z,101613.37
2019-05-29T20:11:21.282Z,101620.03
2019-05-29T20:17:27.949Z,101614.30
2019-05-29T20:23:34.621Z,101623.75
2019-05-29T20:29:42.638Z,101628.16
2019-05-29T20:35:48.669Z,101636.77
2019-05-29T20:41:54.797Z,101631.70
2019-05-29T20:48:00.800Z,101630.84
2019-05-29T20:54:07.094Z,101627.95
2019-05-29T21:00:15.017Z,101632.12
2019-05-29T21:06:23.670Z,101624.66
2019-05-29T21:12:29.944Z,101621.23
2019-05-29T21:18:36.022Z,101623.55
2019-05-29T21:24:55.339Z,101638.73
2019-05-29T21:30:50.395Z,101639.68
2019-05-29T21:36:57.429Z,101639.82
2019-05-29T21:43:04.169Z,101642.70
2019-05-29T21:49:10.180Z,101642.81
2019-05-29T21:55:16.327Z,101646.03
2019-05-29T22:01:22.361Z,101636.80
2019-05-29T22:07:28.393Z,101636.39
2019-05-29T22:13:34.369Z,101637.75
2019-05-29T22:19:40.358Z,101633.77
2019-05-29T22:25:46.434Z,101630.72
2019-05-29T22:31:53.365Z,101629.03
2019-05-29T22:38:00.123Z,101627.73
2019-05-29T22:44:06.520Z,101632.62
2019-05-29T22:50:12.540Z,101628.22
2019-05-29T22:56:18.643Z,101623.83
2019-05-29T23:02:24.930Z,101618.06
2019-05-29T23:08:31.392Z,101618.95
2019-05-29T23:14:37.299Z,101611.91
2019-05-29T23:20:43.502Z,101612.33
2019-05-29T23:26:49.351Z,101613.20
2019-05-29T23:32:55.150Z,101612.33
2019-05-29T23:39:01.436Z,101610.09
2019-05-29T23:45:07.865Z,101604.38
2019-05-29T23:51:13.979Z,101604.36
2019-05-29T23:57:19.901Z,101600.36
